createdAt,value
2022-10-23T00:01:15.421Z,6.83
2022-10-23T00:03:44.292Z,8.53
2022-10-23T00:06:15.313Z,7.63
2022-10-23T00:08:43.718Z,9.07
2022-10-23T00:11:13.711Z,9.03
2022-10-23T00:13:42.354Z,8.43
2022-10-23T00:16:10.874Z,7.53
2022-10-23T00:18:39.929Z,5.97
2022-10-23T00:21:10.132Z,9.63
2022-10-23T00:23:40.470Z,5.97
2022-10-23T00:26:11.161Z,10.03
2022-10-23T00:28:39.832Z,8.57
2022-10-23T00:31:08.282Z,9.50
2022-10-23T00:33:37.216Z,11.47
2022-10-23T00:36:07.122Z,9.00
2022-10-23T00:38:35.794Z,8.27
2022-10-23T00:41:05.839Z,6.40
2022-10-23T00:43:35.630Z,9.60
2022-10-23T00:46:03.847Z,8.37
2022-10-23T00:48:32.023Z,7.03
2022-10-23T00:51:00.252Z,10.77
2022-10-23T00:53:28.429Z,14.23
2022-10-23T00:55:57.709Z,10.27
2022-10-23T00:58:27.285Z,9.23
2022-10-23T01:00:57.479Z,7.87
2022-10-23T01:03:29.124Z,11.00
2022-10-23T01:06:04.645Z,8.10
2022-10-23T01:08:38.720Z,9.17
2022-10-23T01:11:14.344Z,9.63
2022-10-23T01:13:55.391Z,10.07
2022-10-23T01:16:31.579Z,9.53
2022-10-23T01:19:08.177Z,9.33
2022-10-23T01:21:47.262Z,10.57
2022-10-23T01:24:28.431Z,8.00
2022-10-23T01:27:12.693Z,10.87
2022-10-23T01:29:45.783Z,9.10
2022-10-23T01:32:18.638Z,12.67
2022-10-23T01:35:02.530Z,10.93
2022-10-23T01:37:36.422Z,8.37
2022-10-23T01:40:09.392Z,9.27
2022-10-23T01:42:45.493Z,10.07
2022-10-23T01:45:20.300Z,12.63
2022-10-23T01:47:50.676Z,8.57
2022-10-23T01:50:20.013Z,10.63
2022-10-23T01:52:50.513Z,8.57
2022-10-23T01:55:19.737Z,9.70
2022-10-23T01:57:51.007Z,12.63
2022-10-23T02:00:20.795Z,8.10
2022-10-23T02:02:56.525Z,10.23
2022-10-23T02:05:33.662Z,13.50
2022-10-23T02:08:03.596Z,14.23
2022-10-23T02:10:36.127Z,11.93
2022-10-23T02:13:10.178Z,11.33
2022-10-23T02:15:42.336Z,13.40
2022-10-23T02:18:17.083Z,11.90
2022-10-23T02:20:49.094Z,11.00
2022-10-23T02:23:22.487Z,11.13
2022-10-23T02:25:55.793Z,10.57
2022-10-23T02:28:29.482Z,9.50
2022-10-23T02:31:02.905Z,8.40
2022-10-23T02:33:33.909Z,13.77
2022-10-23T02:36:02.079Z,16.87
2022-10-23T02:38:36.739Z,10.87
2022-10-23T02:41:34.633Z,10.43
2022-10-23T02:44:37.738Z,10.13
2022-10-23T02:47:18.530Z,8.33
2022-10-23T02:49:55.129Z,10.77
2022-10-23T02:52:29.018Z,8.83
2022-10-23T02:55:09.996Z,9.27
2022-10-23T02:57:53.068Z,11.30
2022-10-23T03:00:24.189Z,11.17
2022-10-23T03:02:57.866Z,10.27
2022-10-23T03:05:32.267Z,11.57
2022-10-23T03:08:01.169Z,11.33
2022-10-23T03:10:29.399Z,11.83
2022-10-23T03:12:57.695Z,12.60
2022-10-23T03:15:27.843Z,10.53
2022-10-23T03:17:56.118Z,14.67
2022-10-23T03:20:24.351Z,9.80
2022-10-23T03:22:52.619Z,11.07
2022-10-23T03:25:20.837Z,11.80
2022-10-23T03:27:48.999Z,10.10
2022-10-23T03:30:18.445Z,13.70
2022-10-23T03:32:51.674Z,7.37
2022-10-23T03:35:19.874Z,8.00
2022-10-23T03:37:48.117Z,10.77
2022-10-23T03:40:16.506Z,9.97
2022-10-23T03:42:46.021Z,10.13
2022-10-23T03:45:18.161Z,11.63
2022-10-23T03:47:46.381Z,12.33
2022-10-23T03:50:17.154Z,10.00
2022-10-23T03:52:46.312Z,8.50
2022-10-23T03:55:14.726Z,12.77
2022-10-23T03:57:42.988Z,12.47
2022-10-23T04:00:12.262Z,9.73
2022-10-23T04:02:48.266Z,11.20
2022-10-23T04:05:19.053Z,9.77
2022-10-23T04:07:55.511Z,12.53
2022-10-23T04:10:24.444Z,10.77
2022-10-23T04:12:52.675Z,11.23
2022-10-23T04:15:21.351Z,11.43
2022-10-23T04:17:49.538Z,9.43
2022-10-23T04:20:19.420Z,11.33
2022-10-23T04:22:47.630Z,13.30
2022-10-23T04:25:16.587Z,10.73
2022-10-23T04:27:45.230Z,10.93
2022-10-23T04:30:14.349Z,9.57
2022-10-23T04:32:42.774Z,10.87
2022-10-23T04:35:10.990Z,12.63
2022-10-23T04:37:41.004Z,10.97
2022-10-23T04:40:12.349Z,9.97
2022-10-23T04:42:40.921Z,9.87
2022-10-23T04:45:09.966Z,8.87
2022-10-23T04:47:38.379Z,11.33
2022-10-23T04:50:07.840Z,10.80
2022-10-23T04:52:57.189Z,14.67
2022-10-23T04:55:37.734Z,10.50
2022-10-23T04:58:15.991Z,14.17
2022-10-23T05:00:45.421Z,14.30
2022-10-23T05:03:18.263Z,12.70
2022-10-23T05:05:47.075Z,11.40
2022-10-23T05:08:33.123Z,13.93
2022-10-23T05:11:13.727Z,11.77
2022-10-23T05:13:46.292Z,9.60
2022-10-23T05:19:27.772Z,14.97
2022-10-23T05:21:56.931Z,10.33
2022-10-23T05:24:38.594Z,11.90
2022-10-23T05:27:06.801Z,11.77
2022-10-23T05:29:35.070Z,10.67
2022-10-23T05:32:05.725Z,10.57
2022-10-23T05:34:36.472Z,9.83
2022-10-23T05:37:05.947Z,9.87
2022-10-23T05:39:39.496Z,10.43
2022-10-23T05:42:12.320Z,11.93
2022-10-23T05:44:41.608Z,10.20
2022-10-23T05:47:39.074Z,11.97
2022-10-23T05:50:16.792Z,9.20
2022-10-23T05:53:01.607Z,9.50
2022-10-23T05:55:51.684Z,13.07
2022-10-23T05:58:39.775Z,11.53
2022-10-23T06:01:31.048Z,11.13
2022-10-23T06:04:07.140Z,12.17
2022-10-23T06:07:04.606Z,11.17
2022-10-23T06:09:33.779Z,12.97
2022-10-23T06:12:03.960Z,10.70
2022-10-23T06:14:33.521Z,9.23
2022-10-23T06:17:01.646Z,10.90
2022-10-23T06:19:29.758Z,9.50
2022-10-23T06:21:59.050Z,7.93
2022-10-23T06:24:41.400Z,8.03
2022-10-23T06:27:14.905Z,8.60
2022-10-23T06:29:44.794Z,9.43
2022-10-23T06:32:13.061Z,9.00
2022-10-23T06:34:45.296Z,9.77
2022-10-23T06:37:14.020Z,7.77
2022-10-23T06:39:56.125Z,6.67
2022-10-23T06:42:54.070Z,7.57
2022-10-23T06:45:54.191Z,5.70
2022-10-23T06:48:42.558Z,6.93
2022-10-23T06:51:18.796Z,6.90
2022-10-23T06:53:47.133Z,6.33
2022-10-23T06:56:50.082Z,5.00
2022-10-23T06:59:34.052Z,7.13
2022-10-23T07:02:02.312Z,4.50
2022-10-23T07:04:30.566Z,5.63
2022-10-23T07:06:59.586Z,7.13
2022-10-23T07:09:37.113Z,10.73
2022-10-23T07:12:44.295Z,5.40
2022-10-23T07:15:32.471Z,6.07
2022-10-23T07:18:01.326Z,4.37
2022-10-23T07:20:41.742Z,4.73
2022-10-23T07:23:12.245Z,5.17
2022-10-23T07:25:41.293Z,3.77
2022-10-23T07:28:10.515Z,3.70
2022-10-23T07:30:41.472Z,4.77
2022-10-23T07:33:13.760Z,5.33
2022-10-23T07:35:50.003Z,7.50
2022-10-23T07:38:27.334Z,3.40
2022-10-23T07:40:59.194Z,4.00
2022-10-23T07:43:27.722Z,5.53
2022-10-23T07:45:57.471Z,7.67
2022-10-23T07:48:34.843Z,3.47
2022-10-23T07:51:08.276Z,7.27
2022-10-23T07:53:41.696Z,3.30
2022-10-23T07:56:41.206Z,4.77
2022-10-23T07:59:37.976Z,6.27
2022-10-23T08:02:13.936Z,4.60
2022-10-23T08:04:43.381Z,4.23
2022-10-23T08:07:31.759Z,3.07
2022-10-23T08:10:01.233Z,2.50
2022-10-23T08:12:30.444Z,2.60
2022-10-23T08:14:58.762Z,2.50
2022-10-23T08:17:35.182Z,3.37
2022-10-23T08:20:08.681Z,3.80
2022-10-23T08:22:42.005Z,3.38
2022-10-23T08:25:11.714Z,2.20
2022-10-23T08:27:40.067Z,2.90
2022-10-23T08:30:09.290Z,3.40
2022-10-23T08:32:39.071Z,3.42
2022-10-23T08:35:08.233Z,2.10
2022-10-23T08:37:38.050Z,2.53
2022-10-23T08:40:08.280Z,3.28
2022-10-23T08:43:07.178Z,1.77
2022-10-23T08:45:41.473Z,2.60
2022-10-23T08:48:27.128Z,3.60
2022-10-23T08:51:19.869Z,2.78
2022-10-23T08:53:53.699Z,2.60
2022-10-23T08:56:28.406Z,3.25
2022-10-23T08:59:00.316Z,3.63
2022-10-23T09:01:38.392Z,2.47
2022-10-23T09:04:08.344Z,4.35
2022-10-23T09:06:40.586Z,3.33
2022-10-23T09:09:32.930Z,1.92
2022-10-23T09:12:06.339Z,1.92
2022-10-23T09:14:54.122Z,2.72
2022-10-23T09:17:26.456Z,1.90
2022-10-23T09:20:02.909Z,3.50
2022-10-23T09:22:31.143Z,2.05
2022-10-23T09:24:59.340Z,3.00
2022-10-23T09:27:27.477Z,6.57
2022-10-23T09:29:59.087Z,3.65
2022-10-23T09:32:35.057Z,2.25
2022-10-23T09:35:05.969Z,2.35
2022-10-23T09:37:36.017Z,2.90
2022-10-23T09:40:15.282Z,2.17
2022-10-23T09:42:54.206Z,2.22
2022-10-23T09:45:24.954Z,1.77
2022-10-23T09:48:12.664Z,4.70
2022-10-23T09:50:49.638Z,4.85
2022-10-23T09:53:24.048Z,3.60
2022-10-23T09:55:57.543Z,2.25
2022-10-23T09:58:32.728Z,2.58
2022-10-23T10:01:01.103Z,2.47
2022-10-23T10:03:50.745Z,2.42
2022-10-23T10:06:28.185Z,2.53
2022-10-23T10:08:58.711Z,3.65
2022-10-23T10:11:35.878Z,4.47
2022-10-23T10:14:26.950Z,2.83
2022-10-23T10:17:01.150Z,3.33
2022-10-23T10:19:41.433Z,2.20
2022-10-23T10:22:24.032Z,1.67
2022-10-23T10:24:57.609Z,2.10
2022-10-23T10:27:41.800Z,1.88
2022-10-23T10:30:16.723Z,2.85
2022-10-23T10:32:52.359Z,2.33
2022-10-23T10:35:26.349Z,1.90
2022-10-23T10:38:33.649Z,4.10
2022-10-23T10:41:20.312Z,2.97
2022-10-23T10:43:58.616Z,1.80
2022-10-23T10:46:34.638Z,3.92
2022-10-23T10:49:13.219Z,2.15
2022-10-23T10:52:08.027Z,4.70
2022-10-23T10:54:46.680Z,4.88
2022-10-23T10:57:22.737Z,1.35
2022-10-23T10:59:54.370Z,3.42
2022-10-23T11:02:29.416Z,1.75
2022-10-23T11:05:07.087Z,2.63
2022-10-23T11:07:41.757Z,5.28
2022-10-23T11:10:18.811Z,1.10
2022-10-23T11:12:48.219Z,1.50
2022-10-23T11:15:18.941Z,1.80
2022-10-23T11:17:49.966Z,1.50
2022-10-23T11:20:34.913Z,4.68
2022-10-23T11:23:14.812Z,3.28
2022-10-23T11:26:08.084Z,2.95
2022-10-23T11:28:52.571Z,2.47
2022-10-23T11:31:30.025Z,2.03
2022-10-23T11:34:33.866Z,2.83
2022-10-23T11:37:03.778Z,3.67
2022-10-23T11:39:33.535Z,2.03
2022-10-23T11:42:30.689Z,1.38
2022-10-23T11:44:58.913Z,2.50
2022-10-23T11:47:35.004Z,2.10
2022-10-23T11:50:29.504Z,1.45
2022-10-23T11:53:15.806Z,1.55
2022-10-23T11:56:01.864Z,2.67
2022-10-23T11:58:43.180Z,3.05
2022-10-23T12:01:26.935Z,1.70
2022-10-23T12:03:58.720Z,2.05
2022-10-23T12:06:30.753Z,1.85
2022-10-23T12:09:03.096Z,1.50
2022-10-23T12:11:43.900Z,1.90
2022-10-23T12:14:30.847Z,2.20
2022-10-23T12:16:59.410Z,1.88
2022-10-23T12:19:29.468Z,1.83
2022-10-23T12:22:01.860Z,1.60
2022-10-23T12:24:39.778Z,1.80
2022-10-23T12:27:17.633Z,1.50
2022-10-23T12:30:01.243Z,1.98
2022-10-23T12:32:43.051Z,2.03
2022-10-23T12:35:26.412Z,3.33
2022-10-23T12:38:06.119Z,1.85
2022-10-23T12:40:34.407Z,3.67
2022-10-23T12:43:24.460Z,2.58
2022-10-23T12:45:55.205Z,2.58
2022-10-23T12:48:25.498Z,2.33
2022-10-23T12:50:55.538Z,1.88
2022-10-23T12:53:24.377Z,2.22
2022-10-23T12:55:57.351Z,1.90
2022-10-23T12:58:27.529Z,3.75
2022-10-23T13:01:01.934Z,2.53
2022-10-23T13:03:31.925Z,3.78
2022-10-23T13:06:02.624Z,2.20
2022-10-23T13:08:40.096Z,2.45
2022-10-23T13:12:30.462Z,4.20
2022-10-23T13:15:03.448Z,3.47
2022-10-23T13:17:38.448Z,1.73
2022-10-23T13:20:24.140Z,1.95
2022-10-23T13:23:00.709Z,2.33
2022-10-23T13:25:32.017Z,2.03
2022-10-23T13:28:13.850Z,1.92
2022-10-23T13:30:46.071Z,2.88
2022-10-23T13:33:24.846Z,3.88
2022-10-23T13:35:57.724Z,2.15
2022-10-23T13:38:30.500Z,2.75
2022-10-23T13:41:00.575Z,2.83
2022-10-23T13:43:30.690Z,2.65
2022-10-23T13:45:59.661Z,4.07
2022-10-23T13:48:29.760Z,2.67
2022-10-23T13:51:07.781Z,2.28
2022-10-23T13:53:35.946Z,1.70
2022-10-23T13:56:04.172Z,2.78
2022-10-23T13:58:57.083Z,4.43
2022-10-23T14:01:28.256Z,3.75
2022-10-23T14:04:05.700Z,1.60
2022-10-23T14:06:34.293Z,1.88
2022-10-23T14:09:02.889Z,1.52
2022-10-23T14:11:32.286Z,4.47
2022-10-23T14:14:00.794Z,1.63
2022-10-23T14:16:29.053Z,4.90
2022-10-23T14:18:57.477Z,3.28
2022-10-23T14:21:27.214Z,2.15
2022-10-23T14:23:55.965Z,1.90
2022-10-23T14:26:25.588Z,2.00
2022-10-23T14:28:54.652Z,2.10
2022-10-23T14:31:23.656Z,3.50
2022-10-23T14:33:56.336Z,2.28
2022-10-23T14:36:34.354Z,4.00
2022-10-23T14:39:11.698Z,3.90
2022-10-23T14:41:40.496Z,2.17
2022-10-23T14:44:08.734Z,4.20
2022-10-23T14:46:38.247Z,4.80
2022-10-23T14:49:06.525Z,1.95
2022-10-23T14:51:36.416Z,2.13
2022-10-23T14:54:06.554Z,1.80
2022-10-23T14:56:37.105Z,2.25
2022-10-23T14:59:06.643Z,3.47
2022-10-23T15:01:37.124Z,2.00
2022-10-23T15:04:05.727Z,2.00
2022-10-23T15:06:36.234Z,5.50
2022-10-23T15:09:05.819Z,3.55
2022-10-23T15:11:34.188Z,2.10
2022-10-23T15:14:02.599Z,2.55
2022-10-23T15:16:30.819Z,2.70
2022-10-23T15:18:58.953Z,3.05
2022-10-23T15:21:27.111Z,2.42
2022-10-23T15:23:56.631Z,4.47
2022-10-23T15:26:25.522Z,3.42
2022-10-23T15:28:58.397Z,3.45
2022-10-23T15:31:43.977Z,2.80
2022-10-23T15:34:14.412Z,5.32
2022-10-23T15:36:42.717Z,2.70
2022-10-23T15:39:13.811Z,4.93
2022-10-23T15:41:43.281Z,4.50
2022-10-23T15:44:16.067Z,6.07
2022-10-23T15:46:44.593Z,6.20
2022-10-23T15:49:13.394Z,5.03
2022-10-23T15:51:42.145Z,3.22
2022-10-23T15:54:16.522Z,4.68
2022-10-23T15:56:45.122Z,5.05
2022-10-23T15:59:13.882Z,4.68
2022-10-23T16:01:43.403Z,4.25
2022-10-23T16:04:11.725Z,4.30
2022-10-23T16:06:39.935Z,5.93
2022-10-23T16:09:08.054Z,3.38
2022-10-23T16:12:02.922Z,3.83
2022-10-23T16:14:31.014Z,4.65
2022-10-23T16:16:59.162Z,3.70
2022-10-23T16:19:27.288Z,4.82
2022-10-23T16:21:55.452Z,5.38
2022-10-23T16:24:23.664Z,6.85
2022-10-23T16:26:53.319Z,3.88
2022-10-23T16:29:23.664Z,8.68
2022-10-23T16:31:52.186Z,5.05
2022-10-23T16:34:20.865Z,5.45
2022-10-23T16:36:49.221Z,5.85
2022-10-23T16:39:25.683Z,6.72
2022-10-23T16:42:12.362Z,4.50
2022-10-23T16:44:56.751Z,4.30
2022-10-23T16:47:25.122Z,5.43
2022-10-23T16:49:53.225Z,4.93
2022-10-23T16:52:21.357Z,5.85
2022-10-23T16:54:49.516Z,5.32
2022-10-23T16:57:18.006Z,5.82
2022-10-23T16:59:46.218Z,5.43
2022-10-23T17:02:16.156Z,5.18
2022-10-23T17:04:44.457Z,4.88
2022-10-23T17:07:13.416Z,5.35
2022-10-23T17:09:41.878Z,6.82
2022-10-23T17:12:10.085Z,5.22
2022-10-23T17:14:38.743Z,6.53
2022-10-23T17:17:09.674Z,5.43
2022-10-23T17:19:46.064Z,7.53
2022-10-23T17:22:15.496Z,6.88
2022-10-23T17:24:46.422Z,8.90
2022-10-23T17:27:17.142Z,6.00
2022-10-23T17:29:45.319Z,6.07
2022-10-23T17:32:13.629Z,7.20
2022-10-23T17:34:43.198Z,7.55
2022-10-23T17:37:13.258Z,9.35
2022-10-23T17:39:42.775Z,9.88
2022-10-23T17:42:11.024Z,6.50
2022-10-23T17:44:39.179Z,6.20
2022-10-23T17:47:08.051Z,7.05
2022-10-23T17:49:36.225Z,7.20
2022-10-23T17:52:06.086Z,6.63
2022-10-23T17:54:34.241Z,8.18
2022-10-23T17:57:02.561Z,6.78
2022-10-23T17:59:30.787Z,8.40
2022-10-23T18:02:00.750Z,7.93
2022-10-23T18:04:29.057Z,6.70
2022-10-23T18:06:57.222Z,5.03
2022-10-23T18:09:26.793Z,6.17
2022-10-23T18:11:54.992Z,11.13
2022-10-23T18:14:26.120Z,6.25
2022-10-23T18:16:56.668Z,11.13
2022-10-23T18:19:24.849Z,11.82
2022-10-23T18:21:53.308Z,10.40
2022-10-23T18:24:21.408Z,7.57
2022-10-23T18:26:50.995Z,7.23
2022-10-23T18:29:20.678Z,7.40
2022-10-23T18:31:49.138Z,7.07
2022-10-23T18:34:19.393Z,6.90
2022-10-23T18:36:48.158Z,7.13
2022-10-23T18:39:18.220Z,5.80
2022-10-23T18:41:47.088Z,8.53
2022-10-23T18:44:18.997Z,8.90
2022-10-23T18:46:47.596Z,7.07
2022-10-23T18:49:17.172Z,6.85
2022-10-23T18:51:45.756Z,9.80
2022-10-23T18:54:16.313Z,10.23
2022-10-23T18:56:45.188Z,7.82
2022-10-23T18:59:15.122Z,8.60
2022-10-23T19:01:45.578Z,7.93
2022-10-23T19:05:04.603Z,7.28
2022-10-23T19:07:34.134Z,10.25
2022-10-23T19:10:03.381Z,6.32
2022-10-23T19:12:31.513Z,6.15
2022-10-23T19:15:00.238Z,8.20
2022-10-23T19:17:32.622Z,8.27
2022-10-23T19:20:05.654Z,12.20
2022-10-23T19:22:37.044Z,7.53
2022-10-23T19:25:11.204Z,9.63
2022-10-23T19:27:40.718Z,7.00
2022-10-23T19:30:13.537Z,7.27
2022-10-23T19:32:43.851Z,8.48
2022-10-23T19:35:12.948Z,7.20
2022-10-23T19:37:41.161Z,9.25
2022-10-23T19:40:11.313Z,10.00
2022-10-23T19:42:40.975Z,7.57
2022-10-23T19:45:11.737Z,7.65
2022-10-23T19:47:42.886Z,10.40
2022-10-23T19:50:11.572Z,9.98
2022-10-23T19:52:39.705Z,8.68
2022-10-23T19:55:08.895Z,8.45
2022-10-23T19:57:37.095Z,11.23
2022-10-23T20:00:07.644Z,8.55
2022-10-23T20:02:39.500Z,6.77
2022-10-23T20:05:10.918Z,8.32
2022-10-23T20:07:39.069Z,10.95
2022-10-23T20:10:08.436Z,7.95
2022-10-23T20:12:36.846Z,9.50
2022-10-23T20:15:05.474Z,9.23
2022-10-23T20:17:33.578Z,9.43
2022-10-23T20:20:01.833Z,9.15
2022-10-23T20:22:31.353Z,9.27
2022-10-23T20:24:59.868Z,7.25
2022-10-23T20:27:28.464Z,8.13
2022-10-23T20:29:56.957Z,8.43
2022-10-23T20:32:25.095Z,9.37
2022-10-23T20:34:53.726Z,8.45
2022-10-23T20:37:22.040Z,6.63
2022-10-23T20:39:51.708Z,8.57
2022-10-23T20:42:19.904Z,11.07
2022-10-23T20:44:48.204Z,7.07
2022-10-23T20:47:16.506Z,9.97
2022-10-23T20:49:44.636Z,7.73
2022-10-23T20:52:12.812Z,7.82
2022-10-23T20:54:41.474Z,8.27
2022-10-23T20:57:11.039Z,6.63
2022-10-23T20:59:39.227Z,7.47
2022-10-23T21:02:07.667Z,6.55
2022-10-23T21:04:35.914Z,7.72
2022-10-23T21:07:09.886Z,7.70
2022-10-23T21:09:38.925Z,6.60
2022-10-23T21:12:07.468Z,8.68
2022-10-23T21:14:37.372Z,9.90
2022-10-23T21:17:06.029Z,8.83
2022-10-23T21:19:34.113Z,7.87
2022-10-23T21:22:02.764Z,10.82
2022-10-23T21:24:31.081Z,7.47
2022-10-23T21:26:59.231Z,8.27
2022-10-23T21:29:27.404Z,8.95
2022-10-23T21:31:58.273Z,8.87
2022-10-23T21:34:31.662Z,6.67
2022-10-23T21:37:12.554Z,7.60
2022-10-23T21:39:42.263Z,7.40
2022-10-23T21:42:11.067Z,7.80
2022-10-23T21:44:39.261Z,8.30
2022-10-23T21:47:08.831Z,7.80
2022-10-23T21:49:37.187Z,9.13
2022-10-23T21:52:05.733Z,7.53
2022-10-23T21:54:34.249Z,6.40
2022-10-23T21:57:03.258Z,8.00
2022-10-23T21:59:35.993Z,7.57
2022-10-23T22:02:04.689Z,6.20
2022-10-23T22:04:34.615Z,6.60
2022-10-23T22:07:03.705Z,7.87
2022-10-23T22:09:56.820Z,8.73
2022-10-23T22:12:24.945Z,7.07
2022-10-23T22:14:53.085Z,7.30
2022-10-23T22:17:21.236Z,8.63
2022-10-23T22:19:50.769Z,10.02
2022-10-23T22:22:18.974Z,7.83
2022-10-23T22:24:47.195Z,6.53
2022-10-23T22:27:15.387Z,7.20
2022-10-23T22:29:43.515Z,9.47
2022-10-23T22:32:11.725Z,7.18
2022-10-23T22:34:55.125Z,5.00
2022-10-23T22:37:25.372Z,8.57
2022-10-23T22:39:53.870Z,5.82
2022-10-23T22:42:22.244Z,8.47
2022-10-23T22:44:50.384Z,5.55
2022-10-23T22:47:18.504Z,10.82
2022-10-23T22:49:51.154Z,7.63
2022-10-23T22:52:19.545Z,5.63
2022-10-23T22:54:49.156Z,7.07
2022-10-23T22:57:17.314Z,9.25
2022-10-23T22:59:45.486Z,7.07
2022-10-23T23:02:13.674Z,8.68
2022-10-23T23:04:41.834Z,6.88
2022-10-23T23:07:11.471Z,6.85
2022-10-23T23:09:40.779Z,7.85
2022-10-23T23:12:12.495Z,7.38
2022-10-23T23:14:41.645Z,8.13
2022-10-23T23:17:10.454Z,7.55
2022-10-23T23:19:39.285Z,6.25
2022-10-23T23:22:07.654Z,7.50
2022-10-23T23:24:35.835Z,8.32
2022-10-23T23:27:04.005Z,6.60
2022-10-23T23:29:33.540Z,4.10
2022-10-23T23:32:01.646Z,12.05
2022-10-23T23:34:29.941Z,7.07
2022-10-23T23:36:58.112Z,7.03
2022-10-23T23:39:28.339Z,7.38
2022-10-23T23:41:56.673Z,7.50
2022-10-23T23:44:24.772Z,10.90
2022-10-23T23:46:54.321Z,10.30
2022-10-23T23:49:22.758Z,5.45
2022-10-23T23:51:51.467Z,16.75
2022-10-23T23:54:19.696Z,7.47
2022-10-23T23:56:47.880Z,4.70
2022-10-23T23:59:16.535Z,7.03
